sensor_id;sensor_type;location;lat;lon;timestamp;P1;durP1;ratioP1;P2;durP2;ratioP2
70997;SDS011;58663;52.040;4.634;2022-10-29T00:01:40;24.88;;;8.65;;
70997;SDS011;58663;52.040;4.634;2022-10-29T00:04:05;24.75;;;8.75;;
70997;SDS011;58663;52.040;4.634;2022-10-29T00:06:30;17.85;;;7.55;;
70997;SDS011;58663;52.040;4.634;2022-10-29T00:08:56;32.40;;;8.80;;
70997;SDS011;58663;52.040;4.634;2022-10-29T00:11:21;36.17;;;8.52;;
70997;SDS011;58663;52.040;4.634;2022-10-29T00:13:47;23.60;;;7.85;;
70997;SDS011;58663;52.040;4.634;2022-10-29T00:16:18;22.35;;;7.53;;
70997;SDS011;58663;52.040;4.634;2022-10-29T00:18:45;34.13;;;7.95;;
70997;SDS011;58663;52.040;4.634;2022-10-29T00:21:12;16.17;;;6.50;;
70997;SDS011;58663;52.040;4.634;2022-10-29T00:23:39;19.13;;;7.57;;
70997;SDS011;58663;52.040;4.634;2022-10-29T00:26:04;18.77;;;6.10;;
70997;SDS011;58663;52.040;4.634;2022-10-29T00:28:30;34.28;;;6.78;;
70997;SDS011;58663;52.040;4.634;2022-10-29T00:30:55;20.42;;;7.20;;
70997;SDS011;58663;52.040;4.634;2022-10-29T00:33:21;16.98;;;6.63;;
70997;SDS011;58663;52.040;4.634;2022-10-29T00:35:56;22.60;;;7.22;;
70997;SDS011;58663;52.040;4.634;2022-10-29T00:38:22;24.60;;;6.97;;
70997;SDS011;58663;52.040;4.634;2022-10-29T00:40:48;20.65;;;6.88;;
70997;SDS011;58663;52.040;4.634;2022-10-29T00:43:14;28.98;;;6.95;;
70997;SDS011;58663;52.040;4.634;2022-10-29T00:45:43;20.67;;;7.70;;
70997;SDS011;58663;52.040;4.634;2022-10-29T00:48:11;18.52;;;6.13;;
70997;SDS011;58663;52.040;4.634;2022-10-29T00:50:36;24.02;;;6.95;;
70997;SDS011;58663;52.040;4.634;2022-10-29T00:53:02;23.65;;;6.60;;
70997;SDS011;58663;52.040;4.634;2022-10-29T00:55:27;17.25;;;6.25;;
70997;SDS011;58663;52.040;4.634;2022-10-29T00:57:53;19.63;;;6.95;;
70997;SDS011;58663;52.040;4.634;2022-10-29T01:00:19;22.83;;;6.47;;
70997;SDS011;58663;52.040;4.634;2022-10-29T01:02:45;16.17;;;6.80;;
70997;SDS011;58663;52.040;4.634;2022-10-29T01:05:11;20.67;;;7.20;;
70997;SDS011;58663;52.040;4.634;2022-10-29T01:07:38;25.38;;;7.53;;
70997;SDS011;58663;52.040;4.634;2022-10-29T01:10:03;19.15;;;6.75;;
70997;SDS011;58663;52.040;4.634;2022-10-29T01:12:51;19.10;;;6.78;;
70997;SDS011;58663;52.040;4.634;2022-10-29T01:15:28;18.02;;;6.35;;
70997;SDS011;58663;52.040;4.634;2022-10-29T01:32:10;31.85;;;8.82;;
70997;SDS011;58663;52.040;4.634;2022-10-29T01:37:29;21.58;;;9.07;;
70997;SDS011;58663;52.040;4.634;2022-10-29T01:43:03;29.63;;;9.00;;
70997;SDS011;58663;52.040;4.634;2022-10-29T01:48:18;30.00;;;9.70;;
70997;SDS011;58663;52.040;4.634;2022-10-29T01:50:48;26.92;;;9.43;;
70997;SDS011;58663;52.040;4.634;2022-10-29T01:53:15;26.38;;;9.13;;
70997;SDS011;58663;52.040;4.634;2022-10-29T01:55:41;29.90;;;10.48;;
70997;SDS011;58663;52.040;4.634;2022-10-29T01:58:06;38.30;;;11.45;;
70997;SDS011;58663;52.040;4.634;2022-10-29T02:08:41;32.15;;;10.45;;
70997;SDS011;58663;52.040;4.634;2022-10-29T02:14:05;28.50;;;11.05;;
70997;SDS011;58663;52.040;4.634;2022-10-29T02:16:34;29.23;;;11.15;;
70997;SDS011;58663;52.040;4.634;2022-10-29T02:19:00;31.48;;;11.85;;
70997;SDS011;58663;52.040;4.634;2022-10-29T02:21:25;24.70;;;10.55;;
70997;SDS011;58663;52.040;4.634;2022-10-29T02:23:51;25.10;;;11.15;;
70997;SDS011;58663;52.040;4.634;2022-10-29T02:26:16;33.92;;;12.27;;
70997;SDS011;58663;52.040;4.634;2022-10-29T02:28:42;30.98;;;11.23;;
70997;SDS011;58663;52.040;4.634;2022-10-29T02:31:07;33.80;;;10.75;;
70997;SDS011;58663;52.040;4.634;2022-10-29T02:33:33;24.92;;;9.98;;
70997;SDS011;58663;52.040;4.634;2022-10-29T02:35:58;26.40;;;10.35;;
70997;SDS011;58663;52.040;4.634;2022-10-29T02:38:23;26.30;;;9.95;;
70997;SDS011;58663;52.040;4.634;2022-10-29T02:40:49;29.50;;;10.10;;
70997;SDS011;58663;52.040;4.634;2022-10-29T02:43:14;36.05;;;11.48;;
70997;SDS011;58663;52.040;4.634;2022-10-29T02:45:39;26.05;;;10.77;;
70997;SDS011;58663;52.040;4.634;2022-10-29T02:48:05;21.25;;;10.20;;
70997;SDS011;58663;52.040;4.634;2022-10-29T02:50:30;25.48;;;9.45;;
70997;SDS011;58663;52.040;4.634;2022-10-29T02:52:56;26.13;;;10.30;;
70997;SDS011;58663;52.040;4.634;2022-10-29T02:55:21;25.83;;;10.75;;
70997;SDS011;58663;52.040;4.634;2022-10-29T02:57:46;22.77;;;9.77;;
70997;SDS011;58663;52.040;4.634;2022-10-29T03:00:12;30.55;;;10.45;;
70997;SDS011;58663;52.040;4.634;2022-10-29T03:02:38;25.42;;;10.15;;
70997;SDS011;58663;52.040;4.634;2022-10-29T03:05:03;20.00;;;11.38;;
70997;SDS011;58663;52.040;4.634;2022-10-29T03:07:29;32.03;;;10.55;;
70997;SDS011;58663;52.040;4.634;2022-10-29T03:09:56;31.13;;;10.30;;
70997;SDS011;58663;52.040;4.634;2022-10-29T03:12:22;23.65;;;10.80;;
70997;SDS011;58663;52.040;4.634;2022-10-29T03:14:47;31.73;;;10.70;;
70997;SDS011;58663;52.040;4.634;2022-10-29T03:17:12;25.40;;;11.50;;
70997;SDS011;58663;52.040;4.634;2022-10-29T03:19:38;29.63;;;10.85;;
70997;SDS011;58663;52.040;4.634;2022-10-29T03:22:03;23.27;;;10.90;;
70997;SDS011;58663;52.040;4.634;2022-10-29T03:24:28;30.42;;;11.52;;
70997;SDS011;58663;52.040;4.634;2022-10-29T03:26:54;29.83;;;10.98;;
70997;SDS011;58663;52.040;4.634;2022-10-29T03:29:19;24.70;;;11.95;;
70997;SDS011;58663;52.040;4.634;2022-10-29T03:31:44;28.85;;;11.10;;
70997;SDS011;58663;52.040;4.634;2022-10-29T03:34:10;32.03;;;13.50;;
70997;SDS011;58663;52.040;4.634;2022-10-29T03:36:35;33.85;;;13.68;;
70997;SDS011;58663;52.040;4.634;2022-10-29T03:39:00;27.23;;;12.18;;
70997;SDS011;58663;52.040;4.634;2022-10-29T03:41:26;25.52;;;11.95;;
70997;SDS011;58663;52.040;4.634;2022-10-29T03:43:51;38.25;;;12.57;;
70997;SDS011;58663;52.040;4.634;2022-10-29T03:46:16;26.52;;;13.45;;
70997;SDS011;58663;52.040;4.634;2022-10-29T03:48:42;33.53;;;12.95;;
70997;SDS011;58663;52.040;4.634;2022-10-29T03:51:08;33.20;;;14.13;;
70997;SDS011;58663;52.040;4.634;2022-10-29T03:53:34;24.63;;;13.88;;
70997;SDS011;58663;52.040;4.634;2022-10-29T03:56:00;36.38;;;13.30;;
70997;SDS011;58663;52.040;4.634;2022-10-29T03:58:25;36.13;;;14.52;;
70997;SDS011;58663;52.040;4.634;2022-10-29T04:00:58;33.15;;;13.90;;
70997;SDS011;58663;52.040;4.634;2022-10-29T04:03:25;33.85;;;13.48;;
70997;SDS011;58663;52.040;4.634;2022-10-29T04:05:52;25.45;;;12.77;;
70997;SDS011;58663;52.040;4.634;2022-10-29T04:08:18;29.90;;;12.77;;
70997;SDS011;58663;52.040;4.634;2022-10-29T04:10:47;34.00;;;13.63;;
70997;SDS011;58663;52.040;4.634;2022-10-29T04:13:13;29.58;;;13.10;;
70997;SDS011;58663;52.040;4.634;2022-10-29T04:15:39;27.80;;;12.73;;
70997;SDS011;58663;52.040;4.634;2022-10-29T04:18:05;28.08;;;12.98;;
70997;SDS011;58663;52.040;4.634;2022-10-29T04:20:30;30.52;;;14.13;;
70997;SDS011;58663;52.040;4.634;2022-10-29T04:22:56;37.42;;;14.43;;
70997;SDS011;58663;52.040;4.634;2022-10-29T04:25:21;32.25;;;13.93;;
70997;SDS011;58663;52.040;4.634;2022-10-29T04:27:46;27.70;;;13.40;;
70997;SDS011;58663;52.040;4.634;2022-10-29T04:30:12;27.33;;;13.23;;
70997;SDS011;58663;52.040;4.634;2022-10-29T04:32:37;25.63;;;13.18;;
70997;SDS011;58663;52.040;4.634;2022-10-29T04:35:03;30.23;;;13.07;;
70997;SDS011;58663;52.040;4.634;2022-10-29T04:37:28;27.60;;;12.93;;
70997;SDS011;58663;52.040;4.634;2022-10-29T04:39:54;30.85;;;13.75;;
70997;SDS011;58663;52.040;4.634;2022-10-29T04:42:19;29.30;;;13.02;;
70997;SDS011;58663;52.040;4.634;2022-10-29T04:44:45;27.05;;;13.57;;
70997;SDS011;58663;52.040;4.634;2022-10-29T04:47:10;27.05;;;13.40;;
70997;SDS011;58663;52.040;4.634;2022-10-29T04:49:35;29.73;;;12.80;;
70997;SDS011;58663;52.040;4.634;2022-10-29T04:52:01;27.13;;;12.93;;
70997;SDS011;58663;52.040;4.634;2022-10-29T04:54:26;27.55;;;12.38;;
70997;SDS011;58663;52.040;4.634;2022-10-29T04:56:52;24.50;;;12.35;;
70997;SDS011;58663;52.040;4.634;2022-10-29T04:59:17;22.90;;;12.27;;
70997;SDS011;58663;52.040;4.634;2022-10-29T05:01:42;27.08;;;12.32;;
70997;SDS011;58663;52.040;4.634;2022-10-29T05:04:08;25.00;;;11.75;;
70997;SDS011;58663;52.040;4.634;2022-10-29T05:06:33;20.20;;;12.27;;
70997;SDS011;58663;52.040;4.634;2022-10-29T05:08:58;28.98;;;12.52;;
70997;SDS011;58663;52.040;4.634;2022-10-29T05:11:24;27.88;;;11.90;;
70997;SDS011;58663;52.040;4.634;2022-10-29T05:13:49;23.17;;;11.93;;
70997;SDS011;58663;52.040;4.634;2022-10-29T05:16:14;28.20;;;11.93;;
70997;SDS011;58663;52.040;4.634;2022-10-29T05:18:40;34.10;;;11.93;;
70997;SDS011;58663;52.040;4.634;2022-10-29T05:21:05;27.05;;;11.88;;
70997;SDS011;58663;52.040;4.634;2022-10-29T05:23:31;26.00;;;11.85;;
70997;SDS011;58663;52.040;4.634;2022-10-29T05:25:56;22.20;;;11.57;;
70997;SDS011;58663;52.040;4.634;2022-10-29T05:28:22;24.83;;;11.55;;
70997;SDS011;58663;52.040;4.634;2022-10-29T05:30:48;20.35;;;10.73;;
70997;SDS011;58663;52.040;4.634;2022-10-29T05:33:15;22.75;;;11.80;;
70997;SDS011;58663;52.040;4.634;2022-10-29T05:35:41;22.48;;;10.93;;
70997;SDS011;58663;52.040;4.634;2022-10-29T05:38:08;23.35;;;11.32;;
70997;SDS011;58663;52.040;4.634;2022-10-29T05:40:34;18.55;;;11.13;;
70997;SDS011;58663;52.040;4.634;2022-10-29T05:42:59;24.42;;;11.25;;
70997;SDS011;58663;52.040;4.634;2022-10-29T05:45:25;22.00;;;11.45;;
70997;SDS011;58663;52.040;4.634;2022-10-29T05:47:57;26.55;;;12.07;;
70997;SDS011;58663;52.040;4.634;2022-10-29T05:50:23;21.75;;;11.57;;
70997;SDS011;58663;52.040;4.634;2022-10-29T05:52:58;20.23;;;12.25;;
70997;SDS011;58663;52.040;4.634;2022-10-29T05:55:25;16.40;;;10.80;;
70997;SDS011;58663;52.040;4.634;2022-10-29T05:57:57;26.38;;;12.02;;
70997;SDS011;58663;52.040;4.634;2022-10-29T06:00:23;28.58;;;12.65;;
70997;SDS011;58663;52.040;4.634;2022-10-29T06:02:49;24.95;;;13.35;;
70997;SDS011;58663;52.040;4.634;2022-10-29T06:05:14;25.80;;;12.65;;
70997;SDS011;58663;52.040;4.634;2022-10-29T06:07:40;25.33;;;12.52;;
70997;SDS011;58663;52.040;4.634;2022-10-29T06:10:05;23.27;;;12.85;;
70997;SDS011;58663;52.040;4.634;2022-10-29T06:12:31;22.95;;;13.68;;
70997;SDS011;58663;52.040;4.634;2022-10-29T06:14:57;29.58;;;13.60;;
70997;SDS011;58663;52.040;4.634;2022-10-29T06:17:22;27.60;;;13.75;;
70997;SDS011;58663;52.040;4.634;2022-10-29T06:19:48;39.15;;;15.13;;
70997;SDS011;58663;52.040;4.634;2022-10-29T06:22:13;34.17;;;16.08;;
70997;SDS011;58663;52.040;4.634;2022-10-29T06:24:38;38.35;;;16.73;;
70997;SDS011;58663;52.040;4.634;2022-10-29T06:27:04;36.35;;;17.63;;
70997;SDS011;58663;52.040;4.634;2022-10-29T06:29:29;36.80;;;17.50;;
70997;SDS011;58663;52.040;4.634;2022-10-29T06:31:54;37.58;;;18.90;;
70997;SDS011;58663;52.040;4.634;2022-10-29T06:34:19;39.47;;;18.58;;
70997;SDS011;58663;52.040;4.634;2022-10-29T06:36:45;42.25;;;19.33;;
70997;SDS011;58663;52.040;4.634;2022-10-29T06:39:10;39.53;;;18.17;;
70997;SDS011;58663;52.040;4.634;2022-10-29T06:41:35;42.28;;;18.95;;
70997;SDS011;58663;52.040;4.634;2022-10-29T06:44:01;41.25;;;18.85;;
70997;SDS011;58663;52.040;4.634;2022-10-29T06:46:26;43.60;;;18.30;;
70997;SDS011;58663;52.040;4.634;2022-10-29T06:48:52;42.33;;;17.30;;
70997;SDS011;58663;52.040;4.634;2022-10-29T06:51:17;44.70;;;18.10;;
70997;SDS011;58663;52.040;4.634;2022-10-29T06:53:42;45.17;;;17.63;;
70997;SDS011;58663;52.040;4.634;2022-10-29T06:56:08;41.67;;;17.02;;
70997;SDS011;58663;52.040;4.634;2022-10-29T06:58:33;38.08;;;16.77;;
70997;SDS011;58663;52.040;4.634;2022-10-29T07:00:59;37.75;;;16.77;;
70997;SDS011;58663;52.040;4.634;2022-10-29T07:03:24;41.72;;;17.33;;
70997;SDS011;58663;52.040;4.634;2022-10-29T07:05:57;38.97;;;16.95;;
70997;SDS011;58663;52.040;4.634;2022-10-29T07:08:23;36.58;;;16.73;;
70997;SDS011;58663;52.040;4.634;2022-10-29T07:10:49;37.97;;;16.58;;
70997;SDS011;58663;52.040;4.634;2022-10-29T07:13:15;43.65;;;17.35;;
70997;SDS011;58663;52.040;4.634;2022-10-29T07:15:40;34.10;;;16.67;;
70997;SDS011;58663;52.040;4.634;2022-10-29T07:18:06;41.05;;;17.45;;
70997;SDS011;58663;52.040;4.634;2022-10-29T07:20:33;37.30;;;15.93;;
70997;SDS011;58663;52.040;4.634;2022-10-29T07:22:59;30.33;;;15.60;;
70997;SDS011;58663;52.040;4.634;2022-10-29T07:25:28;38.92;;;15.65;;
70997;SDS011;58663;52.040;4.634;2022-10-29T07:27:54;29.52;;;15.25;;
70997;SDS011;58663;52.040;4.634;2022-10-29T07:30:32;35.40;;;15.80;;
70997;SDS011;58663;52.040;4.634;2022-10-29T07:32:58;30.60;;;14.82;;
70997;SDS011;58663;52.040;4.634;2022-10-29T07:35:24;37.05;;;16.10;;
70997;SDS011;58663;52.040;4.634;2022-10-29T07:37:49;28.42;;;14.88;;
70997;SDS011;58663;52.040;4.634;2022-10-29T07:40:14;34.30;;;14.82;;
70997;SDS011;58663;52.040;4.634;2022-10-29T07:42:40;28.10;;;14.38;;
70997;SDS011;58663;52.040;4.634;2022-10-29T07:45:05;23.55;;;13.75;;
70997;SDS011;58663;52.040;4.634;2022-10-29T07:47:31;29.52;;;14.50;;
70997;SDS011;58663;52.040;4.634;2022-10-29T07:49:56;26.73;;;13.55;;
70997;SDS011;58663;52.040;4.634;2022-10-29T07:52:22;27.10;;;13.60;;
70997;SDS011;58663;52.040;4.634;2022-10-29T07:54:47;31.17;;;14.38;;
70997;SDS011;58663;52.040;4.634;2022-10-29T07:57:13;26.45;;;14.57;;
70997;SDS011;58663;52.040;4.634;2022-10-29T07:59:38;29.60;;;14.35;;
70997;SDS011;58663;52.040;4.634;2022-10-29T08:02:03;30.65;;;14.75;;
70997;SDS011;58663;52.040;4.634;2022-10-29T08:04:29;27.55;;;14.40;;
70997;SDS011;58663;52.040;4.634;2022-10-29T08:06:54;29.25;;;14.75;;
70997;SDS011;58663;52.040;4.634;2022-10-29T08:09:19;30.70;;;15.77;;
70997;SDS011;58663;52.040;4.634;2022-10-29T08:11:45;25.02;;;15.13;;
70997;SDS011;58663;52.040;4.634;2022-10-29T08:14:10;26.95;;;15.68;;
70997;SDS011;58663;52.040;4.634;2022-10-29T08:16:36;28.40;;;15.68;;
70997;SDS011;58663;52.040;4.634;2022-10-29T08:19:02;29.70;;;14.32;;
70997;SDS011;58663;52.040;4.634;2022-10-29T08:21:27;30.83;;;14.25;;
70997;SDS011;58663;52.040;4.634;2022-10-29T08:23:52;26.45;;;13.68;;
70997;SDS011;58663;52.040;4.634;2022-10-29T08:26:18;25.08;;;15.02;;
70997;SDS011;58663;52.040;4.634;2022-10-29T08:28:44;21.67;;;14.02;;
70997;SDS011;58663;52.040;4.634;2022-10-29T08:31:09;27.73;;;14.27;;
70997;SDS011;58663;52.040;4.634;2022-10-29T08:33:34;34.40;;;14.10;;
70997;SDS011;58663;52.040;4.634;2022-10-29T08:36:00;28.38;;;15.00;;
70997;SDS011;58663;52.040;4.634;2022-10-29T08:38:25;29.80;;;14.90;;
70997;SDS011;58663;52.040;4.634;2022-10-29T08:41:04;30.65;;;14.45;;
70997;SDS011;58663;52.040;4.634;2022-10-29T08:52:18;26.90;;;14.98;;
70997;SDS011;58663;52.040;4.634;2022-10-29T08:54:50;28.98;;;13.73;;
70997;SDS011;58663;52.040;4.634;2022-10-29T08:57:24;27.63;;;14.50;;
70997;SDS011;58663;52.040;4.634;2022-10-29T08:59:57;23.60;;;13.80;;
70997;SDS011;58663;52.040;4.634;2022-10-29T09:02:27;27.15;;;12.60;;
70997;SDS011;58663;52.040;4.634;2022-10-29T09:04:54;23.38;;;12.85;;
70997;SDS011;58663;52.040;4.634;2022-10-29T09:20:28;22.90;;;12.30;;
70997;SDS011;58663;52.040;4.634;2022-10-29T09:31:00;29.33;;;13.13;;
70997;SDS011;58663;52.040;4.634;2022-10-29T09:33:38;22.10;;;12.82;;
70997;SDS011;58663;52.040;4.634;2022-10-29T09:36:04;20.60;;;12.48;;
70997;SDS011;58663;52.040;4.634;2022-10-29T09:38:39;21.55;;;12.35;;
70997;SDS011;58663;52.040;4.634;2022-10-29T09:41:09;22.05;;;12.73;;
70997;SDS011;58663;52.040;4.634;2022-10-29T09:43:47;22.75;;;11.70;;
70997;SDS011;58663;52.040;4.634;2022-10-29T09:52:09;22.42;;;12.25;;
70997;SDS011;58663;52.040;4.634;2022-10-29T09:54:38;22.50;;;11.38;;
70997;SDS011;58663;52.040;4.634;2022-10-29T09:57:04;21.08;;;12.20;;
70997;SDS011;58663;52.040;4.634;2022-10-29T10:01:58;25.98;;;11.48;;
70997;SDS011;58663;52.040;4.634;2022-10-29T10:04:28;19.20;;;11.05;;
70997;SDS011;58663;52.040;4.634;2022-10-29T10:09:58;25.15;;;11.55;;
70997;SDS011;58663;52.040;4.634;2022-10-29T10:12:26;20.77;;;11.30;;
70997;SDS011;58663;52.040;4.634;2022-10-29T10:17:38;22.35;;;11.85;;
70997;SDS011;58663;52.040;4.634;2022-10-29T10:22:56;18.83;;;10.97;;
70997;SDS011;58663;52.040;4.634;2022-10-29T10:28:22;16.50;;;10.05;;
70997;SDS011;58663;52.040;4.634;2022-10-29T10:31:12;21.27;;;10.60;;
70997;SDS011;58663;52.040;4.634;2022-10-29T10:33:42;23.67;;;11.15;;
70997;SDS011;58663;52.040;4.634;2022-10-29T10:36:13;22.40;;;9.98;;
70997;SDS011;58663;52.040;4.634;2022-10-29T10:38:45;21.30;;;10.38;;
70997;SDS011;58663;52.040;4.634;2022-10-29T10:41:12;22.60;;;11.18;;
70997;SDS011;58663;52.040;4.634;2022-10-29T10:43:40;17.60;;;10.57;;
70997;SDS011;58663;52.040;4.634;2022-10-29T10:46:14;19.73;;;9.48;;
70997;SDS011;58663;52.040;4.634;2022-10-29T10:48:55;19.73;;;9.77;;
70997;SDS011;58663;52.040;4.634;2022-10-29T10:51:26;17.33;;;10.13;;
70997;SDS011;58663;52.040;4.634;2022-10-29T10:53:53;27.92;;;9.70;;
70997;SDS011;58663;52.040;4.634;2022-10-29T10:56:20;21.17;;;9.00;;
70997;SDS011;58663;52.040;4.634;2022-10-29T11:01:19;18.98;;;8.07;;
70997;SDS011;58663;52.040;4.634;2022-10-29T11:03:47;18.45;;;8.85;;
70997;SDS011;58663;52.040;4.634;2022-10-29T11:06:22;16.38;;;8.60;;
70997;SDS011;58663;52.040;4.634;2022-10-29T11:11:37;15.07;;;8.48;;
70997;SDS011;58663;52.040;4.634;2022-10-29T11:17:00;17.58;;;7.97;;
70997;SDS011;58663;52.040;4.634;2022-10-29T11:19:28;17.65;;;8.30;;
70997;SDS011;58663;52.040;4.634;2022-10-29T11:30:30;20.48;;;7.90;;
70997;SDS011;58663;52.040;4.634;2022-10-29T11:35:45;14.73;;;7.80;;
70997;SDS011;58663;52.040;4.634;2022-10-29T11:38:19;16.90;;;7.28;;
70997;SDS011;58663;52.040;4.634;2022-10-29T11:43:16;18.17;;;7.18;;
70997;SDS011;58663;52.040;4.634;2022-10-29T11:59:12;16.25;;;8.13;;
70997;SDS011;58663;52.040;4.634;2022-10-29T12:04:27;16.60;;;6.82;;
70997;SDS011;58663;52.040;4.634;2022-10-29T12:07:00;11.10;;;6.47;;
70997;SDS011;58663;52.040;4.634;2022-10-29T12:12:28;12.57;;;6.53;;
70997;SDS011;58663;52.040;4.634;2022-10-29T12:23:03;17.08;;;5.65;;
70997;SDS011;58663;52.040;4.634;2022-10-29T12:31:12;13.57;;;5.55;;
70997;SDS011;58663;52.040;4.634;2022-10-29T12:39:05;12.43;;;5.60;;
70997;SDS011;58663;52.040;4.634;2022-10-29T12:41:40;10.35;;;5.80;;
70997;SDS011;58663;52.040;4.634;2022-10-29T12:46:59;10.30;;;5.43;;
70997;SDS011;58663;52.040;4.634;2022-10-29T12:54:56;13.77;;;5.75;;
70997;SDS011;58663;52.040;4.634;2022-10-29T12:59:53;13.73;;;5.40;;
70997;SDS011;58663;52.040;4.634;2022-10-29T13:07:35;11.38;;;5.20;;
70997;SDS011;58663;52.040;4.634;2022-10-29T13:15:19;11.98;;;5.35;;
70997;SDS011;58663;52.040;4.634;2022-10-29T13:17:46;16.23;;;5.70;;
70997;SDS011;58663;52.040;4.634;2022-10-29T13:25:40;13.32;;;5.00;;
70997;SDS011;58663;52.040;4.634;2022-10-29T13:30:32;13.93;;;5.45;;
70997;SDS011;58663;52.040;4.634;2022-10-29T13:32:59;10.93;;;4.95;;
70997;SDS011;58663;52.040;4.634;2022-10-29T13:43:00;15.65;;;5.13;;
70997;SDS011;58663;52.040;4.634;2022-10-29T13:45:26;13.93;;;5.07;;
70997;SDS011;58663;52.040;4.634;2022-10-29T13:48:00;11.70;;;5.07;;
70997;SDS011;58663;52.040;4.634;2022-10-29T13:50:26;9.30;;;4.90;;
70997;SDS011;58663;52.040;4.634;2022-10-29T13:52:52;14.07;;;6.30;;
70997;SDS011;58663;52.040;4.634;2022-10-29T13:55:19;11.23;;;5.50;;
70997;SDS011;58663;52.040;4.634;2022-10-29T14:00:20;16.48;;;6.60;;
70997;SDS011;58663;52.040;4.634;2022-10-29T14:08:10;13.80;;;5.80;;
70997;SDS011;58663;52.040;4.634;2022-10-29T14:15:38;11.80;;;5.88;;
70997;SDS011;58663;52.040;4.634;2022-10-29T14:21:04;13.48;;;6.05;;
70997;SDS011;58663;52.040;4.634;2022-10-29T14:24:09;11.32;;;6.00;;
70997;SDS011;58663;52.040;4.634;2022-10-29T14:26:36;13.55;;;5.35;;
70997;SDS011;58663;52.040;4.634;2022-10-29T14:29:24;12.30;;;5.78;;
70997;SDS011;58663;52.040;4.634;2022-10-29T14:34:31;11.88;;;5.43;;
70997;SDS011;58663;52.040;4.634;2022-10-29T14:36:59;14.57;;;5.75;;
70997;SDS011;58663;52.040;4.634;2022-10-29T14:39:29;15.98;;;6.60;;
70997;SDS011;58663;52.040;4.634;2022-10-29T14:41:57;15.82;;;5.28;;
70997;SDS011;58663;52.040;4.634;2022-10-29T14:47:04;16.08;;;5.82;;
70997;SDS011;58663;52.040;4.634;2022-10-29T14:49:32;18.08;;;5.40;;
70997;SDS011;58663;52.040;4.634;2022-10-29T14:52:07;15.00;;;6.75;;
70997;SDS011;58663;52.040;4.634;2022-10-29T14:54:45;15.75;;;6.38;;
70997;SDS011;58663;52.040;4.634;2022-10-29T14:57:15;14.05;;;6.18;;
70997;SDS011;58663;52.040;4.634;2022-10-29T14:59:44;9.60;;;5.47;;
70997;SDS011;58663;52.040;4.634;2022-10-29T15:02:11;10.55;;;5.15;;
70997;SDS011;58663;52.040;4.634;2022-10-29T15:10:00;14.45;;;5.57;;
70997;SDS011;58663;52.040;4.634;2022-10-29T15:12:34;15.88;;;5.22;;
70997;SDS011;58663;52.040;4.634;2022-10-29T15:15:09;12.45;;;4.85;;
70997;SDS011;58663;52.040;4.634;2022-10-29T15:17:35;10.02;;;4.95;;
70997;SDS011;58663;52.040;4.634;2022-10-29T15:24:57;15.10;;;5.07;;
70997;SDS011;58663;52.040;4.634;2022-10-29T15:27:24;12.23;;;5.53;;
70997;SDS011;58663;52.040;4.634;2022-10-29T15:29:50;13.00;;;5.45;;
70997;SDS011;58663;52.040;4.634;2022-10-29T15:32:16;14.38;;;5.15;;
70997;SDS011;58663;52.040;4.634;2022-10-29T15:34:48;9.77;;;5.45;;
70997;SDS011;58663;52.040;4.634;2022-10-29T15:42:21;9.90;;;4.90;;
70997;SDS011;58663;52.040;4.634;2022-10-29T15:47:43;17.27;;;5.63;;
70997;SDS011;58663;52.040;4.634;2022-10-29T15:50:11;14.25;;;5.70;;
70997;SDS011;58663;52.040;4.634;2022-10-29T15:52:38;10.32;;;5.43;;
70997;SDS011;58663;52.040;4.634;2022-10-29T15:55:28;11.95;;;5.00;;
70997;SDS011;58663;52.040;4.634;2022-10-29T15:58:04;12.48;;;5.53;;
70997;SDS011;58663;52.040;4.634;2022-10-29T16:00:32;14.73;;;7.25;;
70997;SDS011;58663;52.040;4.634;2022-10-29T16:03:05;16.33;;;5.72;;
70997;SDS011;58663;52.040;4.634;2022-10-29T16:05:41;18.58;;;6.35;;
70997;SDS011;58663;52.040;4.634;2022-10-29T16:11:02;13.00;;;5.53;;
70997;SDS011;58663;52.040;4.634;2022-10-29T16:13:31;15.60;;;5.75;;
70997;SDS011;58663;52.040;4.634;2022-10-29T16:15:57;12.15;;;5.00;;
70997;SDS011;58663;52.040;4.634;2022-10-29T16:18:22;12.40;;;5.78;;
70997;SDS011;58663;52.040;4.634;2022-10-29T16:20:48;12.07;;;6.13;;
70997;SDS011;58663;52.040;4.634;2022-10-29T16:23:13;11.48;;;5.05;;
70997;SDS011;58663;52.040;4.634;2022-10-29T16:25:39;12.80;;;5.38;;
70997;SDS011;58663;52.040;4.634;2022-10-29T16:28:04;14.43;;;5.20;;
70997;SDS011;58663;52.040;4.634;2022-10-29T16:30:30;14.93;;;5.45;;
70997;SDS011;58663;52.040;4.634;2022-10-29T16:32:56;17.95;;;6.05;;
70997;SDS011;58663;52.040;4.634;2022-10-29T16:35:22;14.80;;;5.88;;
70997;SDS011;58663;52.040;4.634;2022-10-29T16:37:49;17.83;;;6.15;;
70997;SDS011;58663;52.040;4.634;2022-10-29T16:40:15;19.77;;;5.68;;
70997;SDS011;58663;52.040;4.634;2022-10-29T16:42:41;13.10;;;5.68;;
70997;SDS011;58663;52.040;4.634;2022-10-29T16:45:09;12.05;;;6.18;;
70997;SDS011;58663;52.040;4.634;2022-10-29T16:50:03;16.33;;;6.03;;
70997;SDS011;58663;52.040;4.634;2022-10-29T16:52:28;12.50;;;5.70;;
70997;SDS011;58663;52.040;4.634;2022-10-29T16:54:54;13.68;;;6.03;;
70997;SDS011;58663;52.040;4.634;2022-10-29T16:57:19;12.45;;;5.65;;
70997;SDS011;58663;52.040;4.634;2022-10-29T16:59:44;17.52;;;6.45;;
70997;SDS011;58663;52.040;4.634;2022-10-29T17:02:10;17.60;;;5.97;;
70997;SDS011;58663;52.040;4.634;2022-10-29T17:04:36;16.52;;;6.07;;
70997;SDS011;58663;52.040;4.634;2022-10-29T17:07:01;21.48;;;6.97;;
70997;SDS011;58663;52.040;4.634;2022-10-29T17:09:27;13.05;;;6.68;;
70997;SDS011;58663;52.040;4.634;2022-10-29T17:11:54;18.38;;;7.40;;
70997;SDS011;58663;52.040;4.634;2022-10-29T17:14:23;24.35;;;7.65;;
70997;SDS011;58663;52.040;4.634;2022-10-29T17:16:48;18.52;;;7.10;;
70997;SDS011;58663;52.040;4.634;2022-10-29T17:19:13;15.45;;;6.45;;
70997;SDS011;58663;52.040;4.634;2022-10-29T17:21:40;10.85;;;6.10;;
70997;SDS011;58663;52.040;4.634;2022-10-29T17:24:06;16.15;;;6.45;;
70997;SDS011;58663;52.040;4.634;2022-10-29T17:26:31;13.60;;;6.43;;
70997;SDS011;58663;52.040;4.634;2022-10-29T17:28:57;15.45;;;6.95;;
70997;SDS011;58663;52.040;4.634;2022-10-29T17:31:22;15.90;;;6.97;;
70997;SDS011;58663;52.040;4.634;2022-10-29T17:33:49;19.90;;;6.90;;
70997;SDS011;58663;52.040;4.634;2022-10-29T17:36:14;12.85;;;6.60;;
70997;SDS011;58663;52.040;4.634;2022-10-29T17:38:42;22.10;;;6.93;;
70997;SDS011;58663;52.040;4.634;2022-10-29T17:41:07;12.80;;;6.65;;
70997;SDS011;58663;52.040;4.634;2022-10-29T17:43:33;9.88;;;6.47;;
70997;SDS011;58663;52.040;4.634;2022-10-29T17:45:58;15.00;;;6.70;;
70997;SDS011;58663;52.040;4.634;2022-10-29T17:48:24;14.00;;;7.65;;
70997;SDS011;58663;52.040;4.634;2022-10-29T17:50:53;12.23;;;6.05;;
70997;SDS011;58663;52.040;4.634;2022-10-29T17:53:19;19.45;;;7.47;;
70997;SDS011;58663;52.040;4.634;2022-10-29T17:55:45;17.52;;;6.45;;
70997;SDS011;58663;52.040;4.634;2022-10-29T17:58:10;15.30;;;6.07;;
70997;SDS011;58663;52.040;4.634;2022-10-29T18:00:36;14.48;;;6.45;;
70997;SDS011;58663;52.040;4.634;2022-10-29T18:03:01;14.25;;;5.82;;
70997;SDS011;58663;52.040;4.634;2022-10-29T18:05:26;12.95;;;6.03;;
70997;SDS011;58663;52.040;4.634;2022-10-29T18:07:52;12.48;;;5.40;;
70997;SDS011;58663;52.040;4.634;2022-10-29T18:10:17;16.88;;;6.30;;
70997;SDS011;58663;52.040;4.634;2022-10-29T18:12:42;14.15;;;5.88;;
70997;SDS011;58663;52.040;4.634;2022-10-29T18:15:08;10.73;;;5.85;;